Time;durP1;ratioP1;P1;durP2;ratioP2;P2;SDS_P1;SDS_P2;PMS_P1;PMS_P2;Temp;Humidity;BMP_temperature;BMP_pressure;BME280_temperature;BME280_humidity;BME280_pressure;Samples;Min_cycle;Max_cycle;Signal;HPM_P1;HPM_P2
2023/06/05 00:00:14;;;;;;;16.48;10.15;;;;;;;;;;4865323;28;20044;-73
2023/06/05 00:02:39;;;;;;;18.27;10.20;;;;;;;;;;4879568;28;22396;-72
2023/06/05 00:05:08;;;;;;;15.80;9.52;;;;;;;;;;4865799;28;20045;-74
2023/06/05 00:07:33;;;;;;;14.77;9.57;;;;;;;;;;4865223;28;20028;-73
2023/06/05 00:09:59;;;;;;;17.65;10.50;;;;;;;;;;4865505;28;20032;-73
2023/06/05 00:12:25;;;;;;;17.60;11.07;;;;;;;;;;4864599;28;20044;-74
2023/06/05 00:14:50;;;;;;;17.67;11.13;;;;;;;;;;4862515;28;20099;-72
2023/06/05 00:17:16;;;;;;;19.33;10.75;;;;;;;;;;4865055;28;20119;-72
2023/06/05 00:19:41;;;;;;;19.02;10.63;;;;;;;;;;4864298;28;20076;-72
2023/06/05 00:22:07;;;;;;;17.05;10.65;;;;;;;;;;4863708;28;20056;-73
2023/06/05 00:24:32;;;;;;;17.25;11.18;;;;;;;;;;4865104;28;20041;-73
2023/06/05 00:26:57;;;;;;;20.60;10.52;;;;;;;;;;4878416;28;20493;-73
2023/06/05 00:29:23;;;;;;;19.52;11.13;;;;;;;;;;4864630;28;20049;-72
2023/06/05 00:31:48;;;;;;;18.25;11.20;;;;;;;;;;4864811;28;20148;-72
2023/06/05 00:34:14;;;;;;;17.15;10.77;;;;;;;;;;4864878;28;20052;-73
2023/06/05 00:36:40;;;;;;;19.33;11.77;;;;;;;;;;4863595;28;20056;-72
2023/06/05 00:39:05;;;;;;;19.63;11.75;;;;;;;;;;4864076;28;20044;-73
2023/06/05 00:41:33;;;;;;;20.23;11.18;;;;;;;;;;4862953;29;20148;-72
2023/06/05 00:43:58;;;;;;;19.48;11.15;;;;;;;;;;4879117;28;20049;-73
2023/06/05 00:46:24;;;;;;;18.67;11.18;;;;;;;;;;4862994;28;20041;-73
2023/06/05 00:48:50;;;;;;;20.52;11.48;;;;;;;;;;4930223;28;20053;-73
2023/06/05 00:51:15;;;;;;;18.90;11.52;;;;;;;;;;4863576;28;20119;-73
2023/06/05 00:53:41;;;;;;;21.05;12.10;;;;;;;;;;4865933;28;20045;-72
2023/06/05 00:56:07;;;;;;;19.73;12.25;;;;;;;;;;4863663;28;20048;-73
2023/06/05 00:58:35;;;;;;;20.92;11.82;;;;;;;;;;4880625;28;20044;-73
2023/06/05 01:01:03;;;;;;;21.67;13.00;;;;;;;;;;4878833;28;20048;-72
2023/06/05 01:03:33;;;;;;;17.67;11.88;;;;;;;;;;4877899;28;20607;-72
2023/06/05 01:06:03;;;;;;;19.73;12.50;;;;;;;;;;4863341;28;20139;-72
2023/06/05 01:08:29;;;;;;;20.02;12.02;;;;;;;;;;4863623;28;20059;-73
2023/06/05 01:10:56;;;;;;;19.67;11.98;;;;;;;;;;4863166;28;20907;-73
2023/06/05 01:13:26;;;;;;;20.60;12.15;;;;;;;;;;4864227;28;22526;-70
2023/06/05 01:15:52;;;;;;;20.27;11.75;;;;;;;;;;4863666;28;20054;-73
2023/06/05 01:18:18;;;;;;;22.08;12.00;;;;;;;;;;4848633;28;20040;-72
2023/06/05 01:20:43;;;;;;;18.55;11.80;;;;;;;;;;4879072;28;20140;-72
2023/06/05 01:23:09;;;;;;;20.67;11.45;;;;;;;;;;4864184;28;20048;-72
2023/06/05 01:25:36;;;;;;;17.23;11.48;;;;;;;;;;4879130;28;20534;-72
2023/06/05 01:28:20;;;;;;;19.08;11.98;;;;;;;;;;4865563;28;20053;-72
2023/06/05 01:30:52;;;;;;;18.30;11.25;;;;;;;;;;4862850;28;20036;-72
2023/06/05 01:33:30;;;;;;;17.92;11.52;;;;;;;;;;4864627;28;20053;-71
2023/06/05 01:35:56;;;;;;;19.67;10.55;;;;;;;;;;4863409;28;20041;-71
2023/06/05 01:38:21;;;;;;;16.23;10.65;;;;;;;;;;4864061;28;20549;-68
2023/06/05 01:40:47;;;;;;;16.25;10.98;;;;;;;;;;4863346;29;20144;-68
2023/06/05 01:43:12;;;;;;;16.52;10.70;;;;;;;;;;4864795;28;20067;-68
2023/06/05 01:45:40;;;;;;;16.38;10.73;;;;;;;;;;4883024;28;20064;-68
2023/06/05 01:48:08;;;;;;;22.98;11.45;;;;;;;;;;4863073;28;22671;-68
2023/06/05 01:50:33;;;;;;;20.90;11.60;;;;;;;;;;4864328;28;20040;-68
2023/06/05 01:53:02;;;;;;;18.90;11.38;;;;;;;;;;4863802;28;20407;-67
2023/06/05 01:55:28;;;;;;;16.83;10.57;;;;;;;;;;4862863;28;20047;-66
2023/06/05 01:57:56;;;;;;;15.77;10.50;;;;;;;;;;4879187;28;20041;-67
2023/06/05 02:00:24;;;;;;;18.80;11.60;;;;;;;;;;4863813;28;20421;-67
2023/06/05 02:02:53;;;;;;;17.95;10.02;;;;;;;;;;4864416;28;20052;-66
2023/06/05 02:05:20;;;;;;;17.65;10.80;;;;;;;;;;4862393;28;20044;-67
2023/06/05 02:07:49;;;;;;;18.40;10.52;;;;;;;;;;4863438;28;20041;-67
2023/06/05 02:10:18;;;;;;;17.10;10.73;;;;;;;;;;4862809;28;20624;-67
2023/06/05 02:12:44;;;;;;;16.60;11.05;;;;;;;;;;4863256;28;20126;-67
2023/06/05 02:15:12;;;;;;;18.33;10.73;;;;;;;;;;4863463;28;20040;-71
2023/06/05 02:17:38;;;;;;;16.17;11.10;;;;;;;;;;4861255;28;20044;-70
2023/06/05 02:20:05;;;;;;;17.15;10.38;;;;;;;;;;4877413;28;20089;-72
2023/06/05 02:22:30;;;;;;;18.25;10.50;;;;;;;;;;4931111;28;20058;-70
2023/06/05 02:24:55;;;;;;;16.85;10.02;;;;;;;;;;4919410;28;22198;-71
2023/06/05 02:27:24;;;;;;;14.50;9.95;;;;;;;;;;4916547;28;20053;-71
2023/06/05 02:29:49;;;;;;;15.85;9.80;;;;;;;;;;4915318;28;20089;-70
2023/06/05 02:32:14;;;;;;;18.42;10.00;;;;;;;;;;4918755;28;20048;-72
2023/06/05 02:34:40;;;;;;;19.08;10.35;;;;;;;;;;4918955;28;20043;-71
2023/06/05 02:37:05;;;;;;;15.77;9.93;;;;;;;;;;4920749;28;20047;-71
2023/06/05 02:39:32;;;;;;;15.27;9.95;;;;;;;;;;4934548;28;20194;-71
2023/06/05 02:41:57;;;;;;;16.02;10.18;;;;;;;;;;4933331;28;20138;-72
2023/06/05 02:44:22;;;;;;;17.50;10.63;;;;;;;;;;4918337;28;20419;-70
2023/06/05 02:46:48;;;;;;;16.33;9.73;;;;;;;;;;4916671;28;20039;-71
2023/06/05 02:49:13;;;;;;;16.20;9.85;;;;;;;;;;4917860;28;20051;-71
2023/06/05 02:51:38;;;;;;;14.45;9.82;;;;;;;;;;4915207;28;20054;-71
2023/06/05 02:54:03;;;;;;;14.52;9.98;;;;;;;;;;4919519;28;20039;-72
2023/06/05 02:56:29;;;;;;;15.93;10.05;;;;;;;;;;4918685;28;20098;-70
2023/06/05 02:58:56;;;;;;;17.40;9.80;;;;;;;;;;4917951;28;20038;-70
2023/06/05 03:01:22;;;;;;;15.18;9.77;;;;;;;;;;4933061;28;20051;-71
2023/06/05 03:03:48;;;;;;;16.77;9.40;;;;;;;;;;4918021;28;20051;-70
2023/06/05 03:06:17;;;;;;;15.02;10.43;;;;;;;;;;4908414;28;20039;-71
2023/06/05 03:08:45;;;;;;;14.52;9.45;;;;;;;;;;4928697;28;21002;-71
2023/06/05 03:11:13;;;;;;;17.17;9.63;;;;;;;;;;4905636;28;20096;-72
2023/06/05 03:13:38;;;;;;;15.07;9.75;;;;;;;;;;4906727;28;20755;-71
2023/06/05 03:16:04;;;;;;;15.80;9.23;;;;;;;;;;4917788;28;20040;-71
2023/06/05 03:18:29;;;;;;;14.82;9.48;;;;;;;;;;4915524;28;20046;-73
2023/06/05 03:20:55;;;;;;;14.88;9.75;;;;;;;;;;4865037;28;20166;-71
2023/06/05 03:23:24;;;;;;;14.13;8.45;;;;;;;;;;4832234;28;20045;-71
2023/06/05 03:25:54;;;;;;;13.45;8.73;;;;;;;;;;4911029;28;20067;-71
2023/06/05 03:28:23;;;;;;;13.00;8.68;;;;;;;;;;4843371;29;20050;-71
2023/06/05 03:30:48;;;;;;;13.68;8.68;;;;;;;;;;4820138;29;20065;-70
2023/06/05 03:33:14;;;;;;;16.05;8.88;;;;;;;;;;4825443;29;20520;-72
2023/06/05 03:35:41;;;;;;;12.00;7.90;;;;;;;;;;4841926;28;20608;-72
2023/06/05 03:38:06;;;;;;;12.10;8.18;;;;;;;;;;4831476;29;20049;-71
2023/06/05 03:40:31;;;;;;;13.40;8.55;;;;;;;;;;4815564;29;20129;-72
2023/06/05 03:42:57;;;;;;;11.55;7.90;;;;;;;;;;4816933;29;20164;-72
2023/06/05 03:45:23;;;;;;;14.23;8.23;;;;;;;;;;4829567;28;20044;-72
2023/06/05 03:47:48;;;;;;;11.68;8.27;;;;;;;;;;4835094;28;20117;-72
2023/06/05 03:50:17;;;;;;;11.75;7.80;;;;;;;;;;4834902;29;20067;-72
2023/06/05 03:52:42;;;;;;;10.60;7.82;;;;;;;;;;4829329;29;20038;-71
2023/06/05 03:55:08;;;;;;;11.27;7.35;;;;;;;;;;4850734;28;20097;-72
2023/06/05 03:57:34;;;;;;;11.90;8.25;;;;;;;;;;4830197;28;20038;-72
2023/06/05 03:59:59;;;;;;;10.77;7.82;;;;;;;;;;4834737;28;20759;-72
2023/06/05 04:02:25;;;;;;;11.73;8.02;;;;;;;;;;4828939;29;20049;-71
2023/06/05 04:04:52;;;;;;;12.35;8.23;;;;;;;;;;4835262;28;20415;-72
2023/06/05 04:07:18;;;;;;;13.52;7.53;;;;;;;;;;4833840;28;20140;-72
2023/06/05 04:09:43;;;;;;;11.10;7.57;;;;;;;;;;4829822;29;20041;-73
2023/06/05 04:12:11;;;;;;;11.98;8.50;;;;;;;;;;4862750;28;20045;-72
2023/06/05 04:14:36;;;;;;;9.98;7.90;;;;;;;;;;4846519;28;20045;-73
2023/06/05 04:17:02;;;;;;;11.23;7.40;;;;;;;;;;4832422;29;20042;-73
2023/06/05 04:19:27;;;;;;;13.90;7.68;;;;;;;;;;4834847;28;20048;-72
2023/06/05 04:21:53;;;;;;;11.80;7.53;;;;;;;;;;4918939;28;20059;-73
2023/06/05 04:24:20;;;;;;;11.45;7.32;;;;;;;;;;4916823;28;20213;-72
2023/06/05 04:26:47;;;;;;;9.60;7.03;;;;;;;;;;4938112;28;20070;-72
2023/06/05 04:29:16;;;;;;;10.73;7.68;;;;;;;;;;4922792;28;20044;-69
2023/06/05 04:31:45;;;;;;;9.20;7.22;;;;;;;;;;4920579;28;20047;-74
2023/06/05 04:34:11;;;;;;;12.90;7.57;;;;;;;;;;4908793;28;20143;-72
2023/06/05 04:36:36;;;;;;;10.25;7.38;;;;;;;;;;4921142;28;20133;-72
2023/06/05 04:39:03;;;;;;;11.02;7.07;;;;;;;;;;4921474;28;20066;-72
2023/06/05 04:41:29;;;;;;;10.15;7.20;;;;;;;;;;4920533;28;20053;-72
2023/06/05 04:43:56;;;;;;;10.50;7.28;;;;;;;;;;4928970;28;20567;-72
2023/06/05 04:46:22;;;;;;;9.07;6.90;;;;;;;;;;4914131;28;20035;-73
2023/06/05 04:48:47;;;;;;;9.48;6.65;;;;;;;;;;4937107;28;20043;-74
2023/06/05 04:51:15;;;;;;;10.95;7.20;;;;;;;;;;4921718;28;20050;-72
2023/06/05 04:53:41;;;;;;;12.98;7.25;;;;;;;;;;4919960;28;20039;-73
2023/06/05 04:56:07;;;;;;;10.15;7.30;;;;;;;;;;4920610;28;20118;-72
2023/06/05 04:58:32;;;;;;;10.30;7.03;;;;;;;;;;4923981;28;20044;-73
2023/06/05 05:01:04;;;;;;;9.77;6.40;;;;;;;;;;4913518;28;20094;-73
2023/06/05 05:03:30;;;;;;;11.00;6.75;;;;;;;;;;4915580;28;20040;-73
2023/06/05 05:05:55;;;;;;;11.73;7.30;;;;;;;;;;4914947;28;20032;-73
2023/06/05 05:08:21;;;;;;;10.43;6.57;;;;;;;;;;4915258;28;20103;-72
2023/06/05 05:10:46;;;;;;;9.40;6.93;;;;;;;;;;4910524;28;20032;-73
2023/06/05 05:13:12;;;;;;;7.50;6.47;;;;;;;;;;4923874;28;20130;-73
2023/06/05 05:15:39;;;;;;;10.23;6.90;;;;;;;;;;4915535;28;21894;-67
2023/06/05 05:18:07;;;;;;;7.60;5.72;;;;;;;;;;4914219;28;21003;-68
2023/06/05 05:20:34;;;;;;;8.60;6.30;;;;;;;;;;4876594;28;20041;-68
2023/06/05 05:23:00;;;;;;;10.65;6.15;;;;;;;;;;4833225;28;20050;-67
2023/06/05 05:25:25;;;;;;;7.65;5.90;;;;;;;;;;4844961;29;20069;-66
2023/06/05 05:27:50;;;;;;;9.52;5.75;;;;;;;;;;4827923;28;20042;-67
2023/06/05 05:30:16;;;;;;;7.18;5.60;;;;;;;;;;4894089;28;20042;-67
2023/06/05 05:32:41;;;;;;;8.18;5.65;;;;;;;;;;4827478;28;20048;-67
2023/06/05 05:35:07;;;;;;;8.55;5.50;;;;;;;;;;4829192;29;20205;-68
2023/06/05 05:37:35;;;;;;;9.13;5.90;;;;;;;;;;4821835;28;20095;-68
2023/06/05 05:40:00;;;;;;;10.45;5.50;;;;;;;;;;4832480;28;20045;-68
2023/06/05 05:42:25;;;;;;;10.45;5.78;;;;;;;;;;4832824;29;20098;-68
2023/06/05 05:44:50;;;;;;;7.75;4.90;;;;;;;;;;4859465;28;20134;-68
2023/06/05 05:47:16;;;;;;;7.47;5.35;;;;;;;;;;4818457;29;20053;-68
2023/06/05 05:49:41;;;;;;;7.78;5.25;;;;;;;;;;4817410;29;20037;-69
2023/06/05 05:52:06;;;;;;;8.45;5.38;;;;;;;;;;4825568;28;20046;-69
2023/06/05 05:54:32;;;;;;;9.07;5.70;;;;;;;;;;4820556;29;20048;-69
2023/06/05 05:56:57;;;;;;;6.80;5.00;;;;;;;;;;4828083;29;20057;-69
2023/06/05 05:59:22;;;;;;;7.55;4.95;;;;;;;;;;4832205;28;20049;-69
2023/06/05 06:01:51;;;;;;;7.60;5.03;;;;;;;;;;4831372;29;20250;-70
2023/06/05 06:04:17;;;;;;;8.57;5.38;;;;;;;;;;4846974;28;20045;-69
2023/06/05 06:06:44;;;;;;;7.28;5.07;;;;;;;;;;4826589;29;20068;-70
2023/06/05 06:09:09;;;;;;;7.10;4.90;;;;;;;;;;4847421;28;20144;-70
2023/06/05 06:11:36;;;;;;;6.13;4.13;;;;;;;;;;4831920;28;20963;-69
2023/06/05 06:14:01;;;;;;;8.45;5.38;;;;;;;;;;4832681;28;20037;-69
2023/06/05 06:16:29;;;;;;;7.45;4.82;;;;;;;;;;4831183;29;20691;-69
2023/06/05 06:18:55;;;;;;;7.95;4.75;;;;;;;;;;4848495;28;20045;-68
2023/06/05 06:21:20;;;;;;;8.30;4.88;;;;;;;;;;4904499;28;20770;-67
2023/06/05 06:23:45;;;;;;;8.50;5.30;;;;;;;;;;4921071;28;20835;-69
2023/06/05 06:26:11;;;;;;;6.32;4.32;;;;;;;;;;4914141;28;20043;-67
2023/06/05 06:28:37;;;;;;;6.43;3.97;;;;;;;;;;4913520;28;20040;-69
2023/06/05 06:31:02;;;;;;;5.03;4.05;;;;;;;;;;4911359;28;20588;-67
2023/06/05 06:33:31;;;;;;;4.97;3.80;;;;;;;;;;4932466;28;20098;-68
2023/06/05 06:35:58;;;;;;;5.53;3.85;;;;;;;;;;4917556;28;20043;-68
2023/06/05 06:38:27;;;;;;;6.03;4.10;;;;;;;;;;4920881;28;20508;-68
2023/06/05 06:40:52;;;;;;;6.28;3.92;;;;;;;;;;4920011;28;20042;-69
2023/06/05 06:43:18;;;;;;;10.32;4.22;;;;;;;;;;4934635;28;20372;-68
2023/06/05 06:45:43;;;;;;;5.43;3.97;;;;;;;;;;4933109;28;20106;-68
2023/06/05 06:48:08;;;;;;;5.85;4.05;;;;;;;;;;4916973;28;20036;-68
2023/06/05 06:50:34;;;;;;;6.03;4.30;;;;;;;;;;4916504;28;20156;-69
2023/06/05 06:52:59;;;;;;;4.45;3.65;;;;;;;;;;4919666;28;20070;-68
2023/06/05 06:55:25;;;;;;;8.20;4.15;;;;;;;;;;4922721;28;20055;-68
2023/06/05 06:57:50;;;;;;;8.38;5.20;;;;;;;;;;4928111;28;20031;-67
2023/06/05 07:00:15;;;;;;;5.60;3.67;;;;;;;;;;4916716;28;20068;-67
2023/06/05 07:02:41;;;;;;;6.10;4.40;;;;;;;;;;4921473;28;20142;-66
2023/06/05 07:05:07;;;;;;;5.95;4.20;;;;;;;;;;4919788;28;20282;-66
2023/06/05 07:07:32;;;;;;;6.68;4.15;;;;;;;;;;4923365;28;20524;-68
2023/06/05 07:09:58;;;;;;;5.95;3.70;;;;;;;;;;4919561;28;20070;-67
2023/06/05 07:12:23;;;;;;;5.70;4.07;;;;;;;;;;4937166;28;20075;-66
2023/06/05 07:14:51;;;;;;;6.55;4.07;;;;;;;;;;4922076;28;20130;-67
2023/06/05 07:17:18;;;;;;;6.88;3.80;;;;;;;;;;4924284;28;21409;-66
2023/06/05 07:19:44;;;;;;;5.68;4.15;;;;;;;;;;4915548;28;20046;-67
2023/06/05 07:22:09;;;;;;;9.30;3.80;;;;;;;;;;4925900;28;20075;-67
2023/06/05 07:24:35;;;;;;;5.70;4.13;;;;;;;;;;4921982;28;20943;-67
2023/06/05 07:27:03;;;;;;;6.10;3.97;;;;;;;;;;4921352;28;20179;-68
2023/06/05 07:29:29;;;;;;;7.78;3.70;;;;;;;;;;4926074;28;20079;-67
2023/06/05 07:31:55;;;;;;;6.53;4.07;;;;;;;;;;4924256;28;20065;-68
2023/06/05 07:34:21;;;;;;;6.35;3.45;;;;;;;;;;4926054;28;20047;-65
2023/06/05 07:36:50;;;;;;;5.60;3.35;;;;;;;;;;4939846;28;20039;-66
2023/06/05 07:39:15;;;;;;;4.85;2.70;;;;;;;;;;4922996;28;20042;-65
2023/06/05 07:41:43;;;;;;;5.90;2.90;;;;;;;;;;4923248;28;20039;-66
2023/06/05 07:44:09;;;;;;;5.68;2.97;;;;;;;;;;4919792;28;20051;-66
2023/06/05 07:46:35;;;;;;;4.20;2.78;;;;;;;;;;4926377;28;20046;-67
2023/06/05 07:49:05;;;;;;;12.05;2.90;;;;;;;;;;4924796;28;20042;-67
2023/06/05 07:51:35;;;;;;;6.05;2.90;;;;;;;;;;4923278;28;20063;-67
2023/06/05 07:54:01;;;;;;;3.17;2.38;;;;;;;;;;4923410;28;22300;-67
2023/06/05 07:56:26;;;;;;;6.65;2.97;;;;;;;;;;4919833;28;20035;-71
2023/06/05 07:58:52;;;;;;;5.53;3.33;;;;;;;;;;4920484;28;20046;-70
2023/06/05 08:01:17;;;;;;;3.92;3.10;;;;;;;;;;4920846;28;20043;-70
2023/06/05 08:03:43;;;;;;;6.65;3.30;;;;;;;;;;4920484;28;20039;-69
2023/06/05 08:06:11;;;;;;;6.60;3.55;;;;;;;;;;4924122;28;20046;-69
2023/06/05 08:08:37;;;;;;;4.90;3.30;;;;;;;;;;4916204;28;20037;-70
2023/06/05 08:11:02;;;;;;;3.90;3.42;;;;;;;;;;4933727;28;20194;-69
2023/06/05 08:13:27;;;;;;;4.97;3.50;;;;;;;;;;4914925;28;20094;-69
2023/06/05 08:15:53;;;;;;;5.22;3.17;;;;;;;;;;4917136;28;20036;-70
2023/06/05 08:18:18;;;;;;;7.57;3.70;;;;;;;;;;4917461;28;20039;-71
2023/06/05 08:20:43;;;;;;;4.72;3.10;;;;;;;;;;4875320;28;20434;-69
2023/06/05 08:23:08;;;;;;;5.88;3.00;;;;;;;;;;4842309;28;20136;-70
2023/06/05 08:25:35;;;;;;;5.63;3.38;;;;;;;;;;4855507;28;20082;-69
2023/06/05 08:28:02;;;;;;;7.85;3.60;;;;;;;;;;4844654;28;20045;-69
2023/06/05 08:30:30;;;;;;;5.28;3.40;;;;;;;;;;4902770;28;20529;-70
2023/06/05 08:32:55;;;;;;;7.68;3.88;;;;;;;;;;4923516;28;20576;-69
2023/06/05 08:35:25;;;;;;;18.77;5.55;;;;;;;;;;4846075;28;20612;-69
2023/06/05 08:37:50;;;;;;;18.58;5.30;;;;;;;;;;4859078;28;20185;-68
2023/06/05 08:40:18;;;;;;;20.00;4.95;;;;;;;;;;4844548;28;20042;-70
2023/06/05 08:42:43;;;;;;;13.45;4.13;;;;;;;;;;4842316;28;20073;-70
2023/06/05 08:45:08;;;;;;;7.65;3.30;;;;;;;;;;4854608;28;20052;-71
2023/06/05 08:47:38;;;;;;;6.57;3.30;;;;;;;;;;4851600;28;20135;-71
2023/06/05 08:50:04;;;;;;;9.32;3.10;;;;;;;;;;4845855;28;20049;-69
2023/06/05 08:52:31;;;;;;;8.20;2.80;;;;;;;;;;4843617;28;20049;-70
2023/06/05 08:54:57;;;;;;;3.85;3.03;;;;;;;;;;4845012;28;20041;-71
2023/06/05 08:57:22;;;;;;;4.70;3.63;;;;;;;;;;4924816;28;20731;-70
2023/06/05 08:59:49;;;;;;;4.20;3.45;;;;;;;;;;4861063;28;20128;-69
2023/06/05 09:02:15;;;;;;;5.80;3.17;;;;;;;;;;4846966;29;20053;-70
2023/06/05 09:04:40;;;;;;;6.45;3.10;;;;;;;;;;4844977;29;20048;-72
2023/06/05 09:07:06;;;;;;;6.13;4.03;;;;;;;;;;4846705;28;20042;-71
2023/06/05 09:09:33;;;;;;;3.97;3.20;;;;;;;;;;4899870;28;20037;-71
2023/06/05 09:12:05;;;;;;;6.25;3.10;;;;;;;;;;4852000;28;20375;-74
2023/06/05 09:14:31;;;;;;;6.68;2.85;;;;;;;;;;4846388;28;20082;-70
2023/06/05 09:16:57;;;;;;;4.78;2.67;;;;;;;;;;4844344;28;20424;-71
2023/06/05 09:19:26;;;;;;;4.82;3.22;;;;;;;;;;4912323;28;20217;-69
2023/06/05 09:21:53;;;;;;;4.78;2.90;;;;;;;;;;4860873;28;20113;-69
2023/06/05 09:24:19;;;;;;;4.10;2.80;;;;;;;;;;4852270;28;20037;-70
2023/06/05 09:26:55;;;;;;;5.20;3.08;;;;;;;;;;4843356;28;20045;-71
2023/06/05 09:29:28;;;;;;;4.70;2.83;;;;;;;;;;4843949;28;20057;-70
2023/06/05 09:32:06;;;;;;;4.43;2.80;;;;;;;;;;4841769;28;21088;-69
2023/06/05 09:34:37;;;;;;;6.43;2.83;;;;;;;;;;4843098;28;20044;-67
2023/06/05 09:37:12;;;;;;;8.52;2.92;;;;;;;;;;4859116;28;20099;-70
2023/06/05 09:39:43;;;;;;;10.32;2.97;;;;;;;;;;4845540;28;20521;-68
2023/06/05 09:42:08;;;;;;;11.48;2.92;;;;;;;;;;4842789;28;20052;-68
2023/06/05 09:44:34;;;;;;;11.80;3.33;;;;;;;;;;4844151;28;20065;-69
2023/06/05 09:47:00;;;;;;;13.90;3.10;;;;;;;;;;4841891;29;20064;-69
2023/06/05 09:49:30;;;;;;;14.38;3.65;;;;;;;;;;4843925;28;20117;-69
2023/06/05 09:51:56;;;;;;;12.18;3.08;;;;;;;;;;4861651;28;20084;-70
2023/06/05 09:54:22;;;;;;;8.20;2.75;;;;;;;;;;4922772;28;20037;-67
2023/06/05 09:56:51;;;;;;;12.40;3.40;;;;;;;;;;4824356;29;20048;-68
2023/06/05 09:59:25;;;;;;;7.45;2.42;;;;;;;;;;4845834;28;20067;-68
2023/06/05 10:01:52;;;;;;;19.30;3.78;;;;;;;;;;4858655;28;20071;-69
2023/06/05 10:04:25;;;;;;;14.80;3.50;;;;;;;;;;4859689;28;20041;-67
2023/06/05 10:06:54;;;;;;;14.18;3.00;;;;;;;;;;4847437;28;20033;-69
2023/06/05 10:09:23;;;;;;;11.98;3.20;;;;;;;;;;4839836;28;20078;-66
2023/06/05 10:11:49;;;;;;;19.50;3.47;;;;;;;;;;4845201;28;21348;-68
2023/06/05 10:14:17;;;;;;;8.48;2.60;;;;;;;;;;4843526;28;20120;-68
2023/06/05 10:16:43;;;;;;;18.65;3.00;;;;;;;;;;4852980;28;20053;-70
2023/06/05 10:19:08;;;;;;;14.20;2.95;;;;;;;;;;4843947;28;20084;-71
2023/06/05 10:21:35;;;;;;;18.95;3.60;;;;;;;;;;4936974;28;20059;-66
2023/06/05 10:24:11;;;;;;;19.85;3.22;;;;;;;;;;4860996;28;20059;-69
2023/06/05 10:26:58;;;;;;;17.17;3.58;;;;;;;;;;4921232;28;20133;-67
2023/06/05 10:29:40;;;;;;;17.73;3.25;;;;;;;;;;4854057;28;20037;-68
2023/06/05 10:32:08;;;;;;;13.88;2.88;;;;;;;;;;4845070;28;20045;-67
2023/06/05 10:34:52;;;;;;;13.18;2.80;;;;;;;;;;4842121;28;20079;-67
2023/06/05 10:37:37;;;;;;;18.17;3.28;;;;;;;;;;4840951;28;20411;-68
2023/06/05 10:40:04;;;;;;;16.40;3.00;;;;;;;;;;4843300;28;20068;-67
2023/06/05 10:42:30;;;;;;;10.68;2.92;;;;;;;;;;4847886;28;20818;-68
2023/06/05 10:44:57;;;;;;;13.23;2.97;;;;;;;;;;4842402;28;20129;-68
2023/06/05 10:47:32;;;;;;;11.10;2.92;;;;;;;;;;4839138;28;20514;-68
2023/06/05 10:50:15;;;;;;;20.88;3.13;;;;;;;;;;4842559;28;20118;-68
2023/06/05 10:52:41;;;;;;;16.13;3.60;;;;;;;;;;4843496;28;21182;-67
2023/06/05 10:55:07;;;;;;;11.48;2.47;;;;;;;;;;4848454;28;20043;-68
2023/06/05 10:57:55;;;;;;;6.72;2.50;;;;;;;;;;4920833;28;20918;-67
2023/06/05 11:00:21;;;;;;;17.63;2.78;;;;;;;;;;4849895;28;22418;-67
2023/06/05 11:02:49;;;;;;;9.32;2.30;;;;;;;;;;4841278;28;20075;-67
2023/06/05 11:05:15;;;;;;;6.50;2.33;;;;;;;;;;4858150;28;20034;-69
2023/06/05 11:07:42;;;;;;;14.80;2.83;;;;;;;;;;4842372;28;20037;-68
2023/06/05 11:10:15;;;;;;;16.33;3.30;;;;;;;;;;4866583;28;22312;-68
2023/06/05 11:12:40;;;;;;;18.58;2.72;;;;;;;;;;4849190;28;20073;-67
2023/06/05 11:15:09;;;;;;;12.65;2.30;;;;;;;;;;4838648;28;20089;-68
2023/06/05 11:17:35;;;;;;;16.65;2.70;;;;;;;;;;4842052;28;20045;-67
2023/06/05 11:20:05;;;;;;;14.93;2.95;;;;;;;;;;4843131;28;20049;-67
2023/06/05 11:22:33;;;;;;;7.68;2.33;;;;;;;;;;4848897;28;20073;-66
2023/06/05 11:25:17;;;;;;;12.70;2.67;;;;;;;;;;4886462;28;20657;-67
2023/06/05 11:27:46;;;;;;;9.13;2.40;;;;;;;;;;4856419;28;20045;-67
2023/06/05 11:30:15;;;;;;;11.65;2.33;;;;;;;;;;4856941;28;20126;-70
2023/06/05 11:32:40;;;;;;;6.60;2.35;;;;;;;;;;4840084;28;20038;-69
2023/06/05 11:35:08;;;;;;;11.30;2.40;;;;;;;;;;4916345;28;20435;-72
2023/06/05 11:37:34;;;;;;;9.32;2.00;;;;;;;;;;4848035;28;20107;-70
2023/06/05 11:40:08;;;;;;;13.45;2.90;;;;;;;;;;4846013;28;20124;-70
2023/06/05 11:42:36;;;;;;;20.40;3.22;;;;;;;;;;4831563;28;20566;-68
2023/06/05 11:45:09;;;;;;;15.45;2.90;;;;;;;;;;4839277;28;21026;-71
2023/06/05 11:47:37;;;;;;;12.95;2.88;;;;;;;;;;4841943;28;20069;-68
2023/06/05 11:50:16;;;;;;;12.63;3.33;;;;;;;;;;4858648;28;20095;-71
2023/06/05 11:52:42;;;;;;;10.23;2.40;;;;;;;;;;4902801;28;20391;-71
2023/06/05 11:55:19;;;;;;;15.90;2.95;;;;;;;;;;4842381;28;20045;-70
2023/06/05 11:57:48;;;;;;;13.15;2.58;;;;;;;;;;4903801;28;20052;-69
2023/06/05 12:00:14;;;;;;;7.45;2.15;;;;;;;;;;4845578;28;20041;-70
2023/06/05 12:02:41;;;;;;;14.57;3.25;;;;;;;;;;4852612;28;20105;-70
2023/06/05 12:05:09;;;;;;;13.10;2.58;;;;;;;;;;4850986;28;20117;-67
2023/06/05 12:07:39;;;;;;;17.55;2.90;;;;;;;;;;4846559;28;20494;-68
2023/06/05 12:10:08;;;;;;;17.60;3.55;;;;;;;;;;4843402;28;20038;-68
2023/06/05 12:12:33;;;;;;;11.82;2.58;;;;;;;;;;4845111;28;20103;-67
2023/06/05 12:15:14;;;;;;;6.78;2.50;;;;;;;;;;4847318;28;20518;-67
2023/06/05 12:17:40;;;;;;;12.57;3.03;;;;;;;;;;4853801;28;20041;-67
2023/06/05 12:20:06;;;;;;;19.35;4.07;;;;;;;;;;4844791;28;20044;-68
2023/06/05 12:22:34;;;;;;;12.98;3.15;;;;;;;;;;4860821;28;20164;-68
2023/06/05 12:25:14;;;;;;;7.95;2.75;;;;;;;;;;4843827;28;20049;-66
2023/06/05 12:27:41;;;;;;;18.60;3.60;;;;;;;;;;4844145;28;20044;-67
2023/06/05 12:30:07;;;;;;;21.27;4.15;;;;;;;;;;4848335;28;20038;-70
2023/06/05 12:32:33;;;;;;;19.38;3.60;;;;;;;;;;4849955;28;20050;-71
2023/06/05 12:35:00;;;;;;;9.43;3.10;;;;;;;;;;4902866;28;20051;-71
2023/06/05 12:37:31;;;;;;;8.85;3.15;;;;;;;;;;4846453;28;20041;-67
2023/06/05 12:39:59;;;;;;;11.87;2.90;;;;;;;;;;4842841;28;20128;-67
2023/06/05 12:42:24;;;;;;;11.65;3.00;;;;;;;;;;4827007;28;20403;-68
2023/06/05 12:44:50;;;;;;;11.85;3.17;;;;;;;;;;4852286;28;20048;-68
2023/06/05 12:47:15;;;;;;;13.88;3.20;;;;;;;;;;4845058;28;20068;-67
2023/06/05 12:49:43;;;;;;;11.77;3.30;;;;;;;;;;4848394;28;20041;-65
2023/06/05 12:52:08;;;;;;;15.90;4.30;;;;;;;;;;4844851;28;20041;-68
2023/06/05 12:54:35;;;;;;;20.42;4.57;;;;;;;;;;4864583;28;20850;-68
2023/06/05 12:57:01;;;;;;;14.63;3.92;;;;;;;;;;4852066;28;20104;-67
2023/06/05 12:59:26;;;;;;;14.55;3.78;;;;;;;;;;4921686;28;20049;-66
2023/06/05 13:01:51;;;;;;;15.00;4.05;;;;;;;;;;4843184;28;20054;-67
2023/06/05 13:04:19;;;;;;;12.63;3.53;;;;;;;;;;4844820;28;20139;-68
2023/06/05 13:06:44;;;;;;;9.73;3.80;;;;;;;;;;4843527;28;20033;-67
2023/06/05 13:09:09;;;;;;;17.35;4.18;;;;;;;;;;4854936;28;20049;-66
2023/06/05 13:11:37;;;;;;;14.43;4.00;;;;;;;;;;4849665;28;20037;-67
2023/06/05 13:14:02;;;;;;;11.25;4.07;;;;;;;;;;4848458;28;20534;-66
2023/06/05 13:16:27;;;;;;;8.20;3.58;;;;;;;;;;4843205;28;20120;-68
2023/06/05 13:18:55;;;;;;;8.45;3.50;;;;;;;;;;4839762;28;20624;-65
2023/06/05 13:21:21;;;;;;;18.10;3.90;;;;;;;;;;4845899;28;20044;-66
2023/06/05 13:23:48;;;;;;;17.25;4.00;;;;;;;;;;4858940;28;20150;-67
2023/06/05 13:26:14;;;;;;;14.95;4.03;;;;;;;;;;4860074;28;20045;-65
2023/06/05 13:28:44;;;;;;;18.13;3.97;;;;;;;;;;4844440;28;20041;-66
2023/06/05 13:31:10;;;;;;;24.85;4.47;;;;;;;;;;4856087;28;20037;-66
2023/06/05 13:33:39;;;;;;;20.88;4.25;;;;;;;;;;4849769;28;20112;-68
2023/06/05 13:36:08;;;;;;;18.20;3.47;;;;;;;;;;4851265;28;20050;-66
2023/06/05 13:38:33;;;;;;;9.73;3.05;;;;;;;;;;4920939;28;20049;-67
2023/06/05 13:41:01;;;;;;;13.15;4.00;;;;;;;;;;4839428;28;20091;-66
2023/06/05 13:43:26;;;;;;;17.63;3.85;;;;;;;;;;4840552;28;20062;-69
2023/06/05 13:45:51;;;;;;;17.98;4.18;;;;;;;;;;4848128;28;20037;-68
2023/06/05 13:48:16;;;;;;;8.93;3.17;;;;;;;;;;4852012;28;20119;-69
2023/06/05 13:50:44;;;;;;;8.77;3.00;;;;;;;;;;4848626;28;20039;-70
2023/06/05 13:53:10;;;;;;;15.07;3.70;;;;;;;;;;4851122;28;20046;-72
2023/06/05 13:55:36;;;;;;;12.63;3.20;;;;;;;;;;4842415;28;20045;-67
2023/06/05 13:58:02;;;;;;;8.00;2.90;;;;;;;;;;4861685;28;20053;-66
2023/06/05 14:00:30;;;;;;;8.32;3.30;;;;;;;;;;4848960;28;21164;-66
2023/06/05 14:02:58;;;;;;;11.68;3.35;;;;;;;;;;4856175;28;22237;-69
2023/06/05 14:05:24;;;;;;;13.68;3.90;;;;;;;;;;4851323;28;20041;-67
2023/06/05 14:07:50;;;;;;;12.70;3.70;;;;;;;;;;4904049;28;20083;-66
2023/06/05 14:10:16;;;;;;;9.73;3.10;;;;;;;;;;4846561;28;20041;-67
2023/06/05 14:12:41;;;;;;;12.07;3.47;;;;;;;;;;4846167;28;20073;-70
2023/06/05 14:15:07;;;;;;;12.98;3.17;;;;;;;;;;4862148;28;20045;-66
2023/06/05 14:17:35;;;;;;;7.82;3.08;;;;;;;;;;4905255;28;20044;-67
2023/06/05 14:20:00;;;;;;;9.57;3.08;;;;;;;;;;4842056;28;20110;-68
2023/06/05 14:22:26;;;;;;;10.30;3.38;;;;;;;;;;4838607;28;20482;-67
2023/06/05 14:24:51;;;;;;;13.20;3.10;;;;;;;;;;4843408;28;20042;-68
2023/06/05 14:27:21;;;;;;;11.95;3.20;;;;;;;;;;4842971;28;20043;-67
2023/06/05 14:29:47;;;;;;;18.65;3.83;;;;;;;;;;4847481;28;20507;-68
2023/06/05 14:32:12;;;;;;;9.98;3.25;;;;;;;;;;4917360;28;20046;-69